Terminal Aerodrome Forecast
Issued by NWS Boston, MA

Home | Current Version | Previous Version | Text Only | Print | Product List | Glossary Off
Versions: 1 2 3 4 5 6 7 8 9 10 11 12 13 14 15 16 17 18 19 20 21 22 23 24 25 26 27 28 29 30 31 32 33 34 35 36 37 38 39 40 41 42 43 44 45 46 47 48 49 50
696 FTUS41 KBOX 251124 TAFBOS TAF KBOS 251124Z 2512/2618 24005KT P6SM BKN008 FM251300 24005KT P6SM SCT015 FM251400 13007KT P6SM SCT040 FM251900 23010G17KT P6SM FEW250 FM252300 27010KT P6SM SCT250 FM261100 30006KT P6SM FEW250 FM261400 04006KT P6SM FEW250 FM261600 08007KT P6SM FEW250=

USA.gov is the U.S. government's official web portal to all federal, state and local government web resources and services.